Terminal Aerodrome Forecast
Issued by NWS Sioux Falls, SD

Home | Current Version | Previous Version | Graphics & Text | Print | Product List | Glossary Off
Versions: 1 2 3 4 5 6 7 8 9 10 11 12 13 14 15 16 17 18 19 20 21 22 23 24 25 26 27

000
FTUS43 KFSD 280038 AAA
TAFFSD
TAF AMD
KFSD 280038Z 2801/2824 11006KT P6SM BKN018
      TEMPO 2801/2805 SCT018 BKN025
     FM281000 13006KT 5SM -TSRA BKN010CB
     FM281300 11008KT 6SM -RA BR OVC006
     FM282000 03007KT P6SM BKN010=

USA.gov is the U.S. government's official web portal to all federal, state and local government web resources and services.